Terminal Aerodrome Forecast
Issued by NWS

Home | Current Version | Previous Version | Text Only | Print | Product List | Glossary On
Versions: 1 2 3 4 5 6 7 8 9 10 11 12 13
216
FTUS45 KPIH 190203 AAA
TAFSUN
TAF AMD
KSUN 190203Z 1902/1924 15006KT 1SM -SN BR BKN010 OVC020
     FM190600 14006KT 1/2SM SN VV008
     FM191200 VRB05KT 1SM -SN SCT008 OVC015
      AMD LTD TO CLD VIS AND WIND 1906/1914=

USA.gov is the U.S. government's official web portal to all federal, state and local government web resources and services.